createdAt,value
2022-09-30T00:04:49.640Z,93.07
2022-09-30T00:10:21.421Z,93.48
2022-09-30T00:15:53.757Z,93.79
2022-09-30T00:21:25.588Z,94.39
2022-09-30T00:26:57.393Z,94.69
2022-09-30T00:32:29.150Z,94.51
2022-09-30T00:38:01.982Z,94.63
2022-09-30T00:43:33.766Z,94.51
2022-09-30T00:49:05.189Z,94.45
2022-09-30T01:00:06.288Z,95.02
2022-09-30T01:05:38.082Z,95.03
2022-09-30T01:11:09.978Z,94.57
2022-09-30T01:16:41.913Z,94.59
2022-09-30T01:22:13.808Z,94.71
2022-09-30T01:27:45.482Z,94.67
2022-09-30T01:33:16.943Z,94.67
2022-09-30T01:38:48.760Z,94.67
2022-09-30T01:44:20.652Z,94.73
2022-09-30T01:49:52.432Z,94.85
2022-09-30T01:55:24.587Z,94.59
2022-09-30T02:00:56.242Z,94.62
2022-09-30T02:06:28.080Z,94.72
2022-09-30T02:12:00.022Z,94.23
2022-09-30T02:17:32.233Z,94.46
2022-09-30T02:23:04.095Z,94.58
2022-09-30T02:28:35.950Z,94.63
2022-09-30T02:34:07.654Z,94.71
2022-09-30T02:39:39.579Z,94.71
2022-09-30T02:45:11.395Z,94.68
2022-09-30T02:50:43.273Z,94.51
2022-09-30T02:53:07.638Z,94.17
2022-09-30T02:58:39.425Z,94.07
2022-09-30T03:04:12.244Z,94.35
2022-09-30T03:09:44.161Z,94.38
2022-09-30T03:15:15.744Z,94.16
2022-09-30T03:20:47.839Z,94.10
2022-09-30T03:26:25.069Z,93.95
2022-09-30T03:31:56.736Z,93.95
2022-09-30T03:37:28.152Z,93.91
2022-09-30T03:48:31.286Z,92.87
2022-09-30T03:54:03.130Z,92.24
2022-09-30T03:59:36.860Z,91.94
2022-09-30T04:05:08.628Z,92.11
2022-09-30T04:10:40.337Z,92.48
2022-09-30T04:16:12.159Z,92.44
2022-09-30T04:21:44.184Z,91.96
2022-09-30T04:32:49.356Z,92.65
2022-09-30T04:38:21.204Z,92.77
2022-09-30T04:43:52.846Z,93.08
2022-09-30T04:49:24.694Z,93.19
2022-09-30T05:00:28.458Z,93.39
2022-09-30T05:06:00.156Z,93.57
2022-09-30T05:11:31.890Z,93.26
2022-09-30T05:17:03.227Z,93.48
2022-09-30T05:30:27.964Z,93.37
2022-09-30T05:35:59.800Z,93.74
2022-09-30T05:41:31.552Z,93.97
2022-09-30T05:47:02.785Z,93.79
2022-09-30T05:52:34.332Z,93.88
2022-09-30T05:58:06.043Z,93.94
2022-09-30T06:09:09.621Z,93.78
2022-09-30T06:14:41.316Z,94.41
2022-09-30T06:20:13.063Z,94.78
2022-09-30T06:25:44.797Z,94.76
2022-09-30T06:36:49.886Z,94.66
2022-09-30T06:42:24.053Z,94.16
2022-09-30T06:48:00.160Z,91.48
2022-09-30T06:58:59.202Z,85.74
2022-09-30T07:04:31.128Z,85.49
2022-09-30T07:10:02.839Z,84.10
2022-09-30T07:15:34.673Z,85.18
2022-09-30T07:26:38.825Z,86.38
2022-09-30T07:37:41.668Z,87.45
2022-09-30T07:43:13.155Z,87.32
2022-09-30T07:48:44.920Z,86.82
2022-09-30T07:54:16.810Z,84.96
2022-09-30T07:59:48.464Z,85.43
2022-09-30T08:05:19.652Z,86.00
2022-09-30T08:10:51.206Z,84.73
2022-09-30T08:16:23.069Z,85.53
2022-09-30T08:21:54.465Z,85.39
2022-09-30T08:27:28.480Z,85.94
2022-09-30T08:32:59.963Z,84.44
2022-09-30T08:38:31.724Z,81.83
2022-09-30T08:44:03.478Z,81.50
2022-09-30T08:49:34.932Z,82.35
2022-09-30T08:55:06.886Z,82.44
2022-09-30T09:00:39.034Z,81.33
2022-09-30T09:06:10.958Z,78.67
2022-09-30T09:11:43.463Z,77.42
2022-09-30T09:17:15.825Z,77.46
2022-09-30T09:22:46.247Z,79.35
2022-09-30T09:28:18.198Z,76.05
2022-09-30T09:33:49.884Z,75.88
2022-09-30T09:39:21.692Z,74.57
2022-09-30T09:44:53.348Z,72.95
2022-09-30T09:50:24.727Z,72.26
2022-09-30T09:58:16.565Z,72.90
2022-09-30T10:03:48.209Z,73.32
2022-09-30T10:09:19.582Z,72.67
2022-09-30T10:14:50.871Z,71.57
2022-09-30T10:25:51.757Z,71.52
2022-09-30T10:31:23.004Z,68.97
2022-09-30T10:47:53.284Z,70.58
2022-09-30T10:53:24.805Z,70.15
2022-09-30T10:58:56.629Z,71.26
2022-09-30T11:04:28.467Z,71.60
2022-09-30T11:10:00.208Z,72.34
2022-09-30T11:15:31.524Z,72.25
2022-09-30T11:21:02.858Z,71.47
2022-09-30T11:26:34.396Z,72.23
2022-09-30T11:43:08.095Z,71.86
2022-09-30T11:48:37.015Z,71.92
2022-09-30T11:54:09.040Z,71.86
2022-09-30T11:59:40.488Z,72.18
2022-09-30T12:05:12.155Z,71.24
2022-09-30T12:10:43.872Z,70.66
2022-09-30T12:16:15.081Z,71.15
2022-09-30T12:21:46.683Z,72.45
2022-09-30T12:27:18.535Z,72.46
2022-09-30T12:32:50.376Z,71.98
2022-09-30T12:38:22.099Z,72.44
2022-09-30T12:43:54.149Z,73.03
2022-09-30T12:49:25.853Z,73.36
2022-09-30T12:54:57.789Z,73.83
2022-09-30T13:00:29.700Z,73.66
2022-09-30T13:06:01.405Z,72.18
2022-09-30T13:17:02.736Z,72.28
2022-09-30T13:22:34.488Z,72.14
2022-09-30T13:28:06.335Z,70.84
2022-09-30T13:33:38.142Z,70.19
2022-09-30T13:39:09.953Z,70.70
2022-09-30T13:44:41.876Z,70.37
2022-09-30T13:50:13.663Z,69.48
2022-09-30T13:55:45.570Z,69.20
2022-09-30T14:03:37.664Z,69.02
2022-09-30T14:09:09.322Z,69.02
2022-09-30T14:14:41.088Z,69.64
2022-09-30T14:20:12.574Z,69.97
2022-09-30T14:25:44.232Z,68.93
2022-09-30T14:31:16.272Z,68.18
2022-09-30T14:36:47.893Z,67.00
2022-09-30T14:42:19.593Z,66.82
2022-09-30T14:47:51.033Z,67.07
2022-09-30T14:53:23.572Z,67.26
2022-09-30T15:04:26.087Z,67.88
2022-09-30T15:09:57.967Z,69.28
2022-09-30T15:15:29.764Z,69.52
2022-09-30T15:21:01.360Z,69.64
2022-09-30T15:26:33.712Z,68.74
2022-09-30T15:32:05.422Z,69.43
2022-09-30T15:37:36.718Z,69.94
2022-09-30T15:43:08.112Z,70.87
2022-09-30T15:48:40.198Z,70.79
2022-09-30T15:54:11.704Z,71.81
2022-09-30T15:59:43.399Z,72.27
2022-09-30T16:05:15.202Z,72.23
2022-09-30T16:10:46.741Z,72.05
2022-09-30T16:16:18.570Z,71.81
2022-09-30T16:21:50.228Z,72.37
2022-09-30T16:27:22.186Z,72.38
2022-09-30T16:32:53.884Z,72.71
2022-09-30T16:38:25.697Z,73.30
2022-09-30T16:43:57.307Z,73.93
2022-09-30T16:49:29.133Z,74.24
2022-09-30T16:55:00.899Z,73.46
2022-09-30T17:00:32.791Z,74.27
2022-09-30T17:06:04.559Z,74.87
2022-09-30T17:11:36.288Z,74.86
2022-09-30T17:17:12.483Z,73.92
2022-09-30T17:28:09.376Z,75.46
2022-09-30T17:33:41.077Z,75.27
2022-09-30T17:39:12.803Z,75.83
2022-09-30T17:44:44.475Z,75.82
2022-09-30T17:50:16.545Z,75.37
2022-09-30T17:55:48.388Z,76.53
2022-09-30T18:06:49.726Z,76.52
2022-09-30T18:12:21.581Z,77.47
2022-09-30T18:17:53.317Z,76.94
2022-09-30T18:23:25.039Z,77.55
2022-09-30T18:28:56.825Z,77.56
2022-09-30T18:34:28.572Z,77.98
2022-09-30T18:40:00.459Z,77.82
2022-09-30T18:51:01.922Z,79.28
2022-09-30T18:56:33.585Z,78.91
2022-09-30T19:02:05.368Z,80.53
2022-09-30T19:07:37.186Z,80.33
2022-09-30T19:13:09.061Z,79.21
2022-09-30T19:18:40.765Z,79.51
2022-09-30T19:24:12.540Z,80.16
2022-09-30T19:29:44.274Z,79.88
2022-09-30T19:35:15.897Z,78.20
2022-09-30T19:40:47.915Z,79.72
2022-09-30T19:46:20.118Z,78.92
2022-09-30T19:51:51.845Z,80.83
2022-09-30T19:57:23.865Z,83.35
2022-09-30T20:02:55.188Z,83.75
2022-09-30T20:08:26.850Z,83.30
2022-09-30T20:13:58.621Z,83.49
2022-09-30T20:19:30.380Z,83.41
2022-09-30T20:25:02.161Z,83.72
2022-09-30T20:30:33.812Z,83.48
2022-09-30T20:36:05.721Z,84.15
2022-09-30T20:41:37.466Z,84.11
2022-09-30T20:47:09.182Z,83.89
2022-09-30T20:52:40.994Z,84.61
2022-09-30T20:58:12.704Z,83.76
2022-09-30T21:03:44.644Z,84.39
2022-09-30T21:09:16.424Z,84.36
2022-09-30T21:14:48.152Z,83.26
2022-09-30T21:20:19.974Z,83.59
2022-09-30T21:31:21.304Z,85.49
2022-09-30T21:36:53.071Z,85.71
2022-09-30T21:42:24.842Z,85.71
2022-09-30T21:47:56.719Z,84.92
2022-09-30T21:53:28.663Z,85.42
2022-09-30T21:59:00.660Z,85.53
2022-09-30T22:10:01.857Z,86.10
2022-09-30T22:15:33.623Z,85.97
2022-09-30T22:21:05.531Z,86.29
2022-09-30T22:26:37.200Z,86.59
2022-09-30T22:32:09.030Z,86.79
2022-09-30T22:37:40.161Z,86.69
2022-09-30T22:43:11.786Z,86.95
2022-09-30T22:48:43.508Z,87.26
2022-09-30T22:54:15.326Z,87.26
2022-09-30T22:59:47.110Z,87.53
2022-09-30T23:05:18.966Z,87.97
2022-09-30T23:10:51.014Z,88.53
2022-09-30T23:16:22.669Z,88.13
2022-09-30T23:21:54.470Z,88.88
2022-09-30T23:27:26.235Z,90.12
2022-09-30T23:32:58.257Z,89.75
2022-09-30T23:38:30.188Z,89.95
2022-09-30T23:44:01.868Z,89.27
2022-09-30T23:49:33.718Z,89.53
2022-09-30T23:55:05.376Z,89.95
